Time;durP1;ratioP1;P1;durP2;ratioP2;P2;SDS_P1;SDS_P2;PMS_P1;PMS_P2;Temp;Humidity;BMP_temperature;BMP_pressure;BME280_temperature;BME280_humidity;BME280_pressure;Samples;Min_cycle;Max_cycle;Signal;HPM_P1;HPM_P2
2022/03/04 00:02:15;;;;;;;35.40;17.35;;;1.30;99.90;;;;;;6216179;23;20465;-72
2022/03/04 00:04:41;;;;;;;32.13;16.85;;;1.20;99.90;;;;;;6243572;22;20024;-73
2022/03/04 00:07:07;;;;;;;37.47;17.40;;;1.20;99.90;;;;;;6216202;23;20341;-72
2022/03/04 00:09:34;;;;;;;33.05;16.27;;;1.20;99.90;;;;;;6191874;23;20023;-73
2022/03/04 00:12:02;;;;;;;35.15;17.30;;;1.20;99.90;;;;;;6191677;23;20028;-72
2022/03/04 00:14:28;;;;;;;36.10;16.80;;;1.10;99.90;;;;;;6191776;23;20020;-72
2022/03/04 00:16:54;;;;;;;35.80;17.30;;;1.10;99.90;;;;;;6216715;23;20486;-73
2022/03/04 00:19:20;;;;;;;36.22;17.90;;;1.10;99.90;;;;;;6217019;23;20016;-73
2022/03/04 00:22:01;;;;;;;37.60;17.10;;;1.00;99.90;;;;;;6217196;23;20479;-72
2022/03/04 00:24:26;;;;;;;32.92;18.05;;;1.00;99.90;;;;;;6191758;23;20024;-73
2022/03/04 00:26:52;;;;;;;31.17;17.38;;;1.00;99.90;;;;;;6216538;23;20154;-72
2022/03/04 00:29:18;;;;;;;33.05;17.92;;;1.00;99.90;;;;;;6243812;23;20020;-73
2022/03/04 00:31:44;;;;;;;31.30;16.67;;;1.00;99.90;;;;;;6216969;23;20024;-72
2022/03/04 00:34:11;;;;;;;40.63;17.15;;;0.90;99.90;;;;;;6216626;23;20075;-73
2022/03/04 00:36:39;;;;;;;32.58;16.33;;;0.90;99.90;;;;;;6217057;23;20021;-73
2022/03/04 00:39:11;;;;;;;34.78;18.75;;;0.90;99.90;;;;;;6216689;23;20055;-72
2022/03/04 00:41:37;;;;;;;34.22;17.13;;;0.80;99.90;;;;;;6216765;23;20103;-72
2022/03/04 00:44:03;;;;;;;32.45;17.20;;;0.80;99.90;;;;;;6216180;23;20027;-73
2022/03/04 00:46:29;;;;;;;32.33;17.10;;;0.80;99.90;;;;;;6243795;23;20368;-73
2022/03/04 00:48:55;;;;;;;35.10;17.40;;;0.80;99.90;;;;;;6244087;23;20046;-72
2022/03/04 00:51:21;;;;;;;32.90;16.58;;;0.70;99.90;;;;;;6216895;23;20422;-73
2022/03/04 00:53:47;;;;;;;32.95;17.13;;;0.80;99.90;;;;;;6216672;23;20453;-72
2022/03/04 00:56:13;;;;;;;29.90;15.52;;;0.70;99.90;;;;;;6244159;23;20095;-73
2022/03/04 00:58:40;;;;;;;38.72;17.92;;;0.70;99.90;;;;;;6216425;23;20020;-73
2022/03/04 01:01:07;;;;;;;36.25;17.42;;;0.70;99.90;;;;;;6191261;23;20024;-73
2022/03/04 01:03:34;;;;;;;34.20;16.63;;;0.70;99.90;;;;;;6243950;23;20016;-73
2022/03/04 01:06:02;;;;;;;32.50;17.25;;;0.70;99.90;;;;;;6216611;22;20031;-71
2022/03/04 01:08:28;;;;;;;36.95;17.85;;;0.70;99.90;;;;;;6216704;23;20099;-72
2022/03/04 01:10:55;;;;;;;32.95;15.75;;;0.70;99.90;;;;;;6191510;23;20020;-73
2022/03/04 01:13:22;;;;;;;35.83;17.50;;;0.60;99.90;;;;;;6217647;23;20074;-72
2022/03/04 01:15:49;;;;;;;37.88;17.48;;;0.70;99.90;;;;;;6217969;23;20016;-73
2022/03/04 01:18:16;;;;;;;29.75;15.45;;;0.60;99.90;;;;;;6218650;23;20333;-73
2022/03/04 01:20:45;;;;;;;35.00;16.58;;;0.60;99.90;;;;;;6193376;23;20063;-72
2022/03/04 01:23:15;;;;;;;34.67;16.70;;;0.60;99.90;;;;;;6217513;23;20056;-72
2022/03/04 01:25:41;;;;;;;31.17;16.73;;;0.60;99.90;;;;;;6218199;23;20028;-72
2022/03/04 01:28:06;;;;;;;37.13;17.02;;;0.60;99.90;;;;;;6217727;23;20523;-72
2022/03/04 01:30:32;;;;;;;29.98;16.08;;;0.60;99.90;;;;;;6192755;23;20016;-72
2022/03/04 01:32:58;;;;;;;36.88;17.77;;;0.60;99.90;;;;;;6218420;23;20020;-72
2022/03/04 01:35:24;;;;;;;33.60;16.42;;;0.60;99.90;;;;;;6218540;23;20027;-72
2022/03/04 01:37:50;;;;;;;33.53;16.73;;;0.50;99.90;;;;;;6218088;23;20020;-73
2022/03/04 01:40:16;;;;;;;35.58;16.77;;;0.50;99.90;;;;;;6218065;23;20368;-72
2022/03/04 01:42:42;;;;;;;35.25;18.38;;;0.50;99.90;;;;;;6217959;23;20456;-72
2022/03/04 01:45:09;;;;;;;34.90;16.85;;;0.50;99.90;;;;;;6217565;23;20098;-73
2022/03/04 01:47:39;;;;;;;37.85;18.20;;;0.50;99.90;;;;;;6217986;23;20027;-73
2022/03/04 01:50:06;;;;;;;38.25;16.83;;;0.50;99.90;;;;;;6218542;23;20020;-72
2022/03/04 01:52:32;;;;;;;34.40;16.67;;;0.50;99.90;;;;;;6217966;23;20024;-72
2022/03/04 01:54:57;;;;;;;36.08;16.65;;;0.50;99.90;;;;;;6218234;23;20023;-72
2022/03/04 01:57:23;;;;;;;33.78;16.98;;;0.50;99.90;;;;;;6192391;23;20028;-72
2022/03/04 01:59:49;;;;;;;31.85;15.68;;;0.50;99.90;;;;;;6217708;23;20024;-73
2022/03/04 02:02:15;;;;;;;33.50;17.15;;;0.50;99.90;;;;;;6192288;23;20051;-72
2022/03/04 02:04:43;;;;;;;34.25;17.08;;;0.50;99.90;;;;;;6217778;22;20103;-73
2022/03/04 02:07:09;;;;;;;37.65;16.95;;;0.50;99.90;;;;;;6217862;23;20551;-73
2022/03/04 02:09:35;;;;;;;38.63;16.98;;;0.60;99.90;;;;;;6217740;23;20016;-72
2022/03/04 02:12:01;;;;;;;32.35;15.65;;;0.50;99.90;;;;;;6217852;23;20099;-72
2022/03/04 02:14:26;;;;;;;35.60;18.20;;;0.50;99.90;;;;;;6217594;23;20359;-72
2022/03/04 02:16:53;;;;;;;38.65;17.83;;;0.50;99.90;;;;;;6193049;23;20019;-72
2022/03/04 02:19:21;;;;;;;35.78;16.25;;;0.40;99.90;;;;;;6168124;23;20059;-73
2022/03/04 02:22:01;;;;;;;35.00;17.38;;;0.40;99.90;;;;;;6192712;23;20024;-72
2022/03/04 02:24:30;;;;;;;34.45;16.98;;;0.40;99.90;;;;;;6191960;23;20526;-73
2022/03/04 02:26:59;;;;;;;38.22;17.00;;;0.40;99.90;;;;;;6217477;23;20031;-71
2022/03/04 02:29:46;;;;;;;35.78;17.10;;;0.30;99.90;;;;;;6192747;23;20020;-71
2022/03/04 02:32:12;;;;;;;35.67;16.23;;;0.30;99.90;;;;;;6217498;23;20027;-71
2022/03/04 02:34:46;;;;;;;34.58;17.50;;;0.30;99.90;;;;;;6216940;23;20415;-71
2022/03/04 02:37:18;;;;;;;40.50;17.08;;;0.20;99.90;;;;;;6217153;23;20024;-72
2022/03/04 02:39:44;;;;;;;32.97;17.00;;;0.20;99.90;;;;;;6218314;23;20024;-71
2022/03/04 02:42:10;;;;;;;36.72;17.15;;;0.10;99.90;;;;;;6217541;23;20020;-71
2022/03/04 02:44:36;;;;;;;37.75;17.65;;;0.10;99.90;;;;;;6192368;23;20020;-71
2022/03/04 02:47:03;;;;;;;36.90;17.98;;;0.10;99.90;;;;;;6217686;23;20152;-71
2022/03/04 02:49:44;;;;;;;39.80;18.17;;;0.10;99.90;;;;;;6217432;22;20082;-71
2022/03/04 02:52:09;;;;;;;35.03;16.15;;;0.10;99.90;;;;;;6167824;23;20035;-71
2022/03/04 02:54:35;;;;;;;33.63;16.75;;;0.10;99.90;;;;;;6217432;23;20020;-71
2022/03/04 02:57:01;;;;;;;37.13;17.27;;;0.10;99.90;;;;;;6217503;23;20103;-71
2022/03/04 02:59:27;;;;;;;32.42;15.93;;;0.00;99.90;;;;;;6217539;23;20352;-71
2022/03/04 03:01:53;;;;;;;41.22;17.42;;;0.00;99.90;;;;;;6217221;23;20326;-72
2022/03/04 03:04:19;;;;;;;38.38;16.60;;;0.00;99.90;;;;;;6217248;23;20036;-72
2022/03/04 03:06:45;;;;;;;35.72;16.00;;;0.00;99.90;;;;;;6217147;22;20023;-71
2022/03/04 03:09:11;;;;;;;35.78;19.27;;;0.00;99.90;;;;;;6217300;23;20028;-71
2022/03/04 03:11:37;;;;;;;38.85;17.77;;;0.00;99.90;;;;;;6217458;23;20020;-71
2022/03/04 03:14:03;;;;;;;31.30;14.95;;;0.00;99.90;;;;;;6191735;23;20048;-70
2022/03/04 03:16:28;;;;;;;35.35;15.80;;;0.00;99.90;;;;;;6192153;23;20027;-70
2022/03/04 03:18:54;;;;;;;36.75;18.65;;;0.00;99.90;;;;;;6192301;23;20566;-71
2022/03/04 03:21:20;;;;;;;33.22;15.52;;;0.00;99.90;;;;;;6217039;23;20020;-71
2022/03/04 03:23:46;;;;;;;33.70;14.98;;;0.00;99.90;;;;;;6217122;23;20095;-71
2022/03/04 03:26:12;;;;;;;33.20;15.18;;;0.00;99.90;;;;;;6192115;23;20078;-71
2022/03/04 03:28:38;;;;;;;33.45;15.23;;;0.00;99.90;;;;;;6192027;23;20445;-71
2022/03/04 03:31:07;;;;;;;34.00;14.55;;;0.00;99.90;;;;;;6192100;23;20019;-71
2022/03/04 03:33:36;;;;;;;33.30;15.60;;;-0.10;99.90;;;;;;6192138;23;20021;-71
2022/03/04 03:36:02;;;;;;;33.45;15.40;;;-0.10;99.90;;;;;;6192146;23;20468;-71
2022/03/04 03:38:28;;;;;;;33.28;15.13;;;-0.10;99.90;;;;;;6214490;23;20024;-71
2022/03/04 03:40:54;;;;;;;31.75;15.82;;;-0.10;99.90;;;;;;6191618;23;20031;-71
2022/03/04 03:43:20;;;;;;;33.58;14.77;;;-0.10;99.90;;;;;;6216053;23;20016;-71
2022/03/04 03:45:46;;;;;;;35.05;16.00;;;-0.10;99.90;;;;;;6215575;23;20400;-71
2022/03/04 03:48:11;;;;;;;34.88;15.50;;;-0.10;99.90;;;;;;6191636;23;20028;-72
2022/03/04 03:50:38;;;;;;;29.85;13.95;;;-0.20;99.90;;;;;;6191647;23;20023;-71
2022/03/04 03:53:05;;;;;;;37.15;16.45;;;-0.20;99.90;;;;;;6217083;23;20110;-71
2022/03/04 03:55:30;;;;;;;32.88;16.00;;;-0.20;99.90;;;;;;6217028;23;20452;-71
2022/03/04 03:57:56;;;;;;;31.45;14.65;;;-0.20;99.90;;;;;;6216824;23;20109;-71
2022/03/04 04:00:22;;;;;;;36.08;17.35;;;-0.20;99.90;;;;;;6191653;23;20487;-71
2022/03/04 04:02:48;;;;;;;34.95;16.50;;;-0.30;99.90;;;;;;6216758;23;20546;-72
2022/03/04 04:05:14;;;;;;;36.97;16.88;;;-0.30;99.90;;;;;;6216642;23;20360;-71
2022/03/04 04:07:40;;;;;;;32.83;15.02;;;-0.30;99.90;;;;;;6215649;23;20074;-71
2022/03/04 04:10:06;;;;;;;39.58;17.45;;;-0.30;99.90;;;;;;6216907;23;20056;-71
2022/03/04 04:12:31;;;;;;;34.60;17.70;;;-0.30;99.90;;;;;;6242228;23;20024;-71
2022/03/04 04:14:57;;;;;;;31.95;15.52;;;-0.40;99.90;;;;;;6216653;23;20028;-71
2022/03/04 04:17:23;;;;;;;33.95;16.73;;;-0.40;99.90;;;;;;6216463;23;20028;-71
2022/03/04 04:19:49;;;;;;;37.70;17.38;;;-0.40;99.90;;;;;;6215628;23;20391;-71
2022/03/04 04:22:14;;;;;;;35.80;16.92;;;-0.40;99.90;;;;;;6244232;23;20062;-71
2022/03/04 04:24:40;;;;;;;37.72;16.10;;;-0.40;99.90;;;;;;6216689;23;20130;-71
2022/03/04 04:27:06;;;;;;;31.65;16.15;;;-0.40;99.90;;;;;;6216763;23;20032;-71
2022/03/04 04:29:32;;;;;;;34.63;15.40;;;-0.40;99.90;;;;;;6217060;23;20075;-71
2022/03/04 04:31:58;;;;;;;34.80;15.88;;;-0.50;99.90;;;;;;6242093;23;20540;-71
2022/03/04 04:34:24;;;;;;;39.83;18.58;;;-0.50;99.90;;;;;;6190760;23;20020;-71
2022/03/04 04:36:49;;;;;;;37.95;16.58;;;-0.50;99.90;;;;;;6216834;23;20099;-71
2022/03/04 04:39:15;;;;;;;34.83;15.65;;;-0.50;99.90;;;;;;6216653;23;20020;-71
2022/03/04 04:41:44;;;;;;;35.28;15.77;;;-0.60;99.90;;;;;;6215809;23;20020;-71
2022/03/04 04:44:10;;;;;;;32.67;17.20;;;-0.60;99.90;;;;;;6216424;23;20028;-71
2022/03/04 04:47:02;;;;;;;38.63;17.23;;;-0.60;99.90;;;;;;6216141;23;20034;-70
2022/03/04 04:49:48;;;;;;;36.75;16.65;;;-0.70;99.90;;;;;;6161920;23;20207;-71
2022/03/04 04:52:15;;;;;;;33.47;17.48;;;-0.70;99.90;;;;;;6185159;23;20352;-70
2022/03/04 04:54:41;;;;;;;39.15;16.45;;;-0.70;99.90;;;;;;6137915;23;20052;-71
2022/03/04 04:57:07;;;;;;;42.30;17.60;;;-0.70;99.90;;;;;;6212490;23;20033;-71
2022/03/04 05:00:04;;;;;;;39.88;17.23;;;-0.70;99.90;;;;;;5123526;27;1391471;-72
2022/03/04 05:02:30;;;;;;;41.60;19.17;;;-0.70;99.90;;;;;;5111603;28;20063;-72
2022/03/04 05:04:55;;;;;;;41.75;18.65;;;-0.80;99.90;;;;;;5111586;28;20418;-72
2022/03/04 05:07:22;;;;;;;43.47;20.63;;;-0.70;99.90;;;;;;5111581;28;20565;-72
2022/03/04 05:09:48;;;;;;;42.05;18.15;;;-0.80;99.90;;;;;;5094581;28;20099;-72
2022/03/04 05:12:14;;;;;;;42.97;17.25;;;-0.80;99.90;;;;;;5094258;28;20051;-72
2022/03/04 05:14:40;;;;;;;42.60;18.48;;;-0.80;99.90;;;;;;5094691;28;20535;-72
2022/03/04 05:17:06;;;;;;;40.08;18.75;;;-0.80;99.90;;;;;;5111158;28;20098;-72
2022/03/04 05:19:32;;;;;;;41.22;19.10;;;-0.80;99.90;;;;;;5129831;28;20051;-72
2022/03/04 05:21:57;;;;;;;43.60;19.42;;;-0.80;99.90;;;;;;5093859;28;20043;-72
2022/03/04 05:24:23;;;;;;;57.38;21.38;;;-0.90;99.90;;;;;;5111297;28;20055;-72
2022/03/04 05:26:49;;;;;;;46.05;20.92;;;-0.90;99.90;;;;;;5128407;28;20040;-72
2022/03/04 05:29:16;;;;;;;49.95;20.55;;;-0.90;99.90;;;;;;5128163;28;20048;-72
2022/03/04 05:31:42;;;;;;;52.25;20.70;;;-0.90;99.90;;;;;;5093956;28;20052;-72
2022/03/04 05:34:08;;;;;;;50.40;20.08;;;-0.90;99.90;;;;;;5110811;28;20043;-71
2022/03/04 05:36:37;;;;;;;54.05;23.80;;;-1.00;99.90;;;;;;5093844;28;20138;-72
2022/03/04 05:39:03;;;;;;;50.88;22.02;;;-0.90;99.90;;;;;;5093865;28;20494;-72
2022/03/04 05:41:30;;;;;;;53.22;22.67;;;-1.00;99.90;;;;;;5093953;28;20427;-72
2022/03/04 05:43:56;;;;;;;47.10;20.83;;;-0.90;99.90;;;;;;5110828;28;20054;-72
2022/03/04 05:46:23;;;;;;;55.97;24.42;;;-0.90;99.90;;;;;;5110682;28;20069;-71
2022/03/04 05:48:49;;;;;;;56.00;21.88;;;-0.90;99.90;;;;;;5110831;28;20502;-72
2022/03/04 05:51:15;;;;;;;55.17;23.85;;;-0.90;99.90;;;;;;5110974;28;20042;-72
2022/03/04 05:53:40;;;;;;;56.45;24.08;;;-0.90;99.90;;;;;;5110573;28;20051;-72
2022/03/04 05:56:08;;;;;;;62.28;24.80;;;-0.90;99.90;;;;;;5093949;28;20070;-72
2022/03/04 05:58:36;;;;;;;66.53;23.80;;;-0.90;99.90;;;;;;5110347;28;20051;-73
2022/03/04 06:01:02;;;;;;;61.45;24.27;;;-0.80;99.90;;;;;;5101697;27;20047;-72
2022/03/04 06:03:28;;;;;;;53.80;24.25;;;-0.80;99.90;;;;;;5130716;27;20089;-72
2022/03/04 06:05:54;;;;;;;56.05;24.48;;;-0.80;99.90;;;;;;5149465;27;20047;-72
2022/03/04 06:08:20;;;;;;;56.03;24.27;;;-0.80;99.90;;;;;;5130673;27;20050;-72
2022/03/04 06:10:46;;;;;;;64.18;22.80;;;-0.80;99.90;;;;;;5119740;27;20057;-72
2022/03/04 06:13:12;;;;;;;61.20;22.65;;;-0.80;99.90;;;;;;5135604;27;20039;-73
2022/03/04 06:15:38;;;;;;;54.20;21.17;;;-0.80;99.90;;;;;;5116911;27;20454;-72
2022/03/04 06:18:03;;;;;;;52.25;20.85;;;-0.80;99.90;;;;;;5117275;27;20087;-72
2022/03/04 06:20:30;;;;;;;47.72;20.42;;;-0.80;99.90;;;;;;5116817;27;20059;-72
2022/03/04 06:22:55;;;;;;;45.30;21.10;;;-0.80;99.90;;;;;;5116933;27;20089;-72
2022/03/04 06:25:21;;;;;;;51.35;20.95;;;-0.90;99.90;;;;;;5116958;27;20114;-71
2022/03/04 06:27:58;;;;;;;53.15;21.15;;;-0.80;99.90;;;;;;5099826;27;20379;-72
2022/03/04 06:30:25;;;;;;;55.45;21.23;;;-0.80;99.90;;;;;;5099399;27;20103;-71
2022/03/04 06:33:29;;;;;;;50.67;21.35;;;-0.80;99.90;;;;;;5115842;27;20635;-71
2022/03/04 06:35:39;;;;;;;51.65;22.50;;;-0.80;99.90;;;;;;5135075;27;20529;-72
2022/03/04 06:38:05;;;;;;;57.72;22.70;;;-0.80;99.90;;;;;;5116356;27;20050;-71
2022/03/04 06:40:31;;;;;;;45.85;19.63;;;-0.80;99.90;;;;;;5116577;27;20119;-72
2022/03/04 06:42:57;;;;;;;55.10;21.73;;;-0.70;99.90;;;;;;5135243;27;20039;-72
2022/03/04 06:45:22;;;;;;;45.85;20.38;;;-0.70;99.90;;;;;;5098338;27;20509;-72
2022/03/04 06:47:48;;;;;;;52.15;21.75;;;-0.70;99.90;;;;;;5116467;27;20134;-72
2022/03/04 06:50:14;;;;;;;49.83;20.75;;;-0.70;99.90;;;;;;5116383;27;20051;-72
2022/03/04 06:52:40;;;;;;;54.88;21.50;;;-0.70;99.90;;;;;;5115394;27;20055;-72
2022/03/04 06:55:06;;;;;;;44.67;20.65;;;-0.70;99.90;;;;;;5098665;27;20094;-72
2022/03/04 06:57:32;;;;;;;52.15;21.20;;;-0.60;99.90;;;;;;5115433;27;20047;-72
2022/03/04 06:59:58;;;;;;;50.92;23.67;;;-0.60;99.90;;;;;;5116014;27;20081;-72
2022/03/04 07:02:24;;;;;;;46.58;19.70;;;-0.60;99.90;;;;;;5095777;28;20518;-71
2022/03/04 07:04:49;;;;;;;48.08;20.08;;;-0.50;99.90;;;;;;5078784;28;20060;-72
2022/03/04 07:07:15;;;;;;;45.75;20.63;;;-0.50;99.90;;;;;;5095613;28;20048;-72
2022/03/04 07:09:41;;;;;;;47.65;20.83;;;-0.50;99.90;;;;;;5095004;28;20058;-72
2022/03/04 07:12:07;;;;;;;48.92;21.20;;;-0.50;99.90;;;;;;5095550;28;20040;-71
2022/03/04 07:14:33;;;;;;;50.10;21.58;;;-0.50;99.90;;;;;;5078521;28;20070;-72
2022/03/04 07:16:59;;;;;;;47.30;19.90;;;-0.40;99.90;;;;;;5095655;28;20126;-72
2022/03/04 07:19:25;;;;;;;48.97;20.10;;;-0.40;99.90;;;;;;5095200;28;20135;-72
2022/03/04 07:21:50;;;;;;;44.30;19.83;;;-0.40;99.90;;;;;;5112714;28;20063;-72
2022/03/04 07:24:16;;;;;;;53.80;20.08;;;-0.40;99.90;;;;;;5095553;28;20054;-72
2022/03/04 07:26:42;;;;;;;43.25;19.70;;;-0.40;99.90;;;;;;5095009;28;20047;-71
2022/03/04 07:29:08;;;;;;;49.42;22.60;;;-0.40;99.90;;;;;;5095425;28;20062;-72
2022/03/04 07:31:34;;;;;;;53.10;21.88;;;-0.30;99.90;;;;;;5078097;28;20494;-72
2022/03/04 07:33:59;;;;;;;55.20;22.55;;;-0.30;99.90;;;;;;5095049;28;20054;-72
2022/03/04 07:36:25;;;;;;;50.55;21.02;;;-0.30;99.90;;;;;;5078201;28;20039;-72
2022/03/04 07:38:55;;;;;;;56.10;21.73;;;-0.30;99.90;;;;;;5094940;28;20051;-72
2022/03/04 07:41:29;;;;;;;55.63;23.27;;;-0.20;99.90;;;;;;5094834;28;20142;-71
2022/03/04 07:43:55;;;;;;;53.17;22.63;;;-0.20;99.90;;;;;;5077004;28;20130;-72
2022/03/04 07:46:22;;;;;;;58.70;23.98;;;-0.20;99.90;;;;;;5094680;28;20137;-72
2022/03/04 07:48:47;;;;;;;65.85;22.10;;;-0.20;99.90;;;;;;5113178;28;20387;-72
2022/03/04 07:51:13;;;;;;;57.30;22.73;;;-0.20;99.90;;;;;;5094665;28;20050;-73
2022/03/04 07:53:39;;;;;;;51.03;21.65;;;-0.20;99.90;;;;;;5078075;28;20048;-72
2022/03/04 07:56:05;;;;;;;58.80;23.33;;;-0.10;99.90;;;;;;5077257;28;20043;-72
2022/03/04 07:58:30;;;;;;;53.00;22.80;;;-0.10;99.90;;;;;;5094103;28;20055;-72
2022/03/04 08:00:56;;;;;;;50.63;22.13;;;0.00;99.90;;;;;;5101908;27;20410;-72
2022/03/04 08:03:22;;;;;;;48.30;21.73;;;0.00;99.90;;;;;;5097884;27;20058;-72
2022/03/04 08:05:48;;;;;;;48.97;22.58;;;0.10;99.90;;;;;;5114650;27;20054;-72
2022/03/04 08:08:13;;;;;;;50.28;21.48;;;0.20;99.90;;;;;;5114871;27;20047;-72
2022/03/04 08:10:39;;;;;;;49.83;20.95;;;0.20;99.90;;;;;;5097460;27;20051;-72
2022/03/04 08:13:05;;;;;;;46.33;20.00;;;0.30;99.90;;;;;;5114558;27;20047;-71
2022/03/04 08:15:31;;;;;;;49.45;19.52;;;0.30;99.90;;;;;;5097050;27;20051;-71
2022/03/04 08:17:57;;;;;;;46.58;19.75;;;0.30;99.90;;;;;;5114545;27;20043;-72
2022/03/04 08:20:22;;;;;;;41.72;18.60;;;0.30;99.90;;;;;;5114607;27;20046;-72
2022/03/04 08:22:48;;;;;;;40.95;20.70;;;0.40;99.90;;;;;;5097424;27;20137;-72
2022/03/04 08:25:14;;;;;;;43.83;19.90;;;0.40;99.90;;;;;;5114013;27;20507;-71
2022/03/04 08:27:41;;;;;;;40.30;20.30;;;0.40;99.90;;;;;;5097606;27;20410;-72
2022/03/04 08:30:08;;;;;;;47.13;19.52;;;0.50;99.90;;;;;;5114505;27;20522;-72
2022/03/04 08:32:35;;;;;;;44.20;20.75;;;0.60;99.90;;;;;;5114080;27;20099;-72
2022/03/04 08:35:01;;;;;;;45.15;19.58;;;0.60;99.90;;;;;;5114422;27;20130;-72
2022/03/04 08:37:27;;;;;;;46.92;18.80;;;0.60;99.90;;;;;;5113491;27;20062;-72
2022/03/04 08:39:53;;;;;;;42.42;20.55;;;0.60;99.90;;;;;;5096978;27;20079;-72
2022/03/04 08:42:18;;;;;;;35.25;17.17;;;0.60;99.90;;;;;;5114544;27;20061;-72
2022/03/04 08:44:44;;;;;;;46.50;20.30;;;0.60;99.90;;;;;;5114152;27;20047;-73
2022/03/04 08:47:10;;;;;;;46.53;20.00;;;0.70;99.90;;;;;;5113658;27;20502;-72
2022/03/04 08:49:36;;;;;;;55.70;22.48;;;0.70;99.90;;;;;;5096337;28;20444;-72
2022/03/04 08:52:03;;;;;;;46.47;19.92;;;0.70;99.90;;;;;;5097085;27;20043;-72
2022/03/04 08:54:29;;;;;;;43.80;21.63;;;0.80;99.90;;;;;;5097247;27;20051;-73
2022/03/04 08:56:55;;;;;;;50.45;21.60;;;0.90;99.90;;;;;;5113446;28;20570;-72
2022/03/04 08:59:21;;;;;;;49.22;23.23;;;0.90;99.90;;;;;;5113661;28;20101;-73
2022/03/04 09:01:47;;;;;;;46.92;21.60;;;0.90;99.90;;;;;;5098733;28;20495;-72
2022/03/04 09:04:14;;;;;;;46.90;24.10;;;0.90;99.90;;;;;;5094003;28;20142;-73
2022/03/04 09:06:44;;;;;;;39.30;20.20;;;1.00;99.90;;;;;;5094057;28;20051;-72
2022/03/04 09:09:10;;;;;;;45.45;20.48;;;1.10;99.90;;;;;;5093133;28;20188;-72
2022/03/04 09:11:36;;;;;;;37.38;18.88;;;1.30;99.90;;;;;;5093687;28;20047;-72
2022/03/04 09:14:06;;;;;;;45.08;20.25;;;1.30;99.90;;;;;;5093439;28;20059;-71
2022/03/04 09:16:32;;;;;;;39.58;18.85;;;1.40;99.90;;;;;;5076113;28;20043;-71
2022/03/04 09:18:58;;;;;;;36.25;16.80;;;1.50;99.90;;;;;;5093386;28;20062;-72
2022/03/04 09:21:28;;;;;;;43.10;17.58;;;1.60;99.90;;;;;;5109085;28;20048;-72
2022/03/04 09:23:54;;;;;;;35.28;17.52;;;1.80;99.90;;;;;;5093603;28;20043;-72
2022/03/04 09:26:20;;;;;;;35.83;17.20;;;2.00;99.90;;;;;;5076036;28;20457;-72
2022/03/04 09:28:47;;;;;;;36.17;18.05;;;2.00;99.90;;;;;;5111906;28;20126;-73
2022/03/04 09:31:13;;;;;;;35.75;17.95;;;2.10;99.90;;;;;;5075669;28;20074;-73
2022/03/04 09:33:39;;;;;;;35.90;17.02;;;2.10;99.90;;;;;;5093657;28;20047;-73
2022/03/04 09:36:07;;;;;;;32.70;17.08;;;2.30;99.90;;;;;;5093404;28;20073;-72
2022/03/04 09:38:33;;;;;;;37.47;18.95;;;2.40;99.90;;;;;;5093307;28;20135;-72
2022/03/04 09:41:00;;;;;;;40.15;18.65;;;2.40;99.90;;;;;;5093309;28;20126;-72
2022/03/04 09:43:26;;;;;;;35.70;18.00;;;2.70;99.90;;;;;;5076397;28;20097;-72
2022/03/04 09:45:53;;;;;;;34.13;17.02;;;2.90;99.90;;;;;;5079022;28;20498;-72
2022/03/04 09:48:19;;;;;;;32.88;16.10;;;3.00;99.90;;;;;;5079430;28;20063;-73
2022/03/04 09:50:47;;;;;;;35.15;17.35;;;3.00;99.90;;;;;;5115704;28;20043;-72
2022/03/04 09:53:14;;;;;;;30.20;15.30;;;3.10;99.90;;;;;;5096989;28;20051;-73
2022/03/04 09:55:41;;;;;;;25.65;14.82;;;3.30;99.90;;;;;;5096966;28;20067;-71
2022/03/04 09:58:24;;;;;;;28.80;14.95;;;3.30;99.90;;;;;;5096861;28;20058;-72
2022/03/04 10:00:49;;;;;;;30.17;15.25;;;3.10;99.90;;;;;;5085736;27;20123;-73
2022/03/04 10:03:30;;;;;;;31.35;17.13;;;3.20;99.90;;;;;;5117537;27;20466;-72
2022/03/04 10:05:59;;;;;;;28.42;15.93;;;3.30;99.90;;;;;;5100186;27;20100;-73
2022/03/04 10:08:27;;;;;;;35.13;15.88;;;3.30;99.90;;;;;;5083375;27;20057;-72
2022/03/04 10:10:56;;;;;;;29.33;15.68;;;3.50;99.90;;;;;;5083533;27;20137;-72
2022/03/04 10:13:40;;;;;;;27.55;15.32;;;3.70;99.90;;;;;;5098981;27;20047;-72
2022/03/04 10:16:06;;;;;;;30.15;14.63;;;3.80;99.90;;;;;;5135274;27;20043;-72
2022/03/04 10:18:32;;;;;;;26.17;14.00;;;4.00;99.90;;;;;;5117229;27;20108;-72
2022/03/04 10:20:57;;;;;;;26.63;15.30;;;4.20;99.90;;;;;;5116940;27;20053;-72
2022/03/04 10:23:25;;;;;;;21.52;13.35;;;4.50;99.90;;;;;;5099957;27;20066;-72
2022/03/04 10:25:57;;;;;;;25.95;13.68;;;4.70;99.90;;;;;;5116378;27;20451;-72
2022/03/04 10:28:25;;;;;;;22.58;12.27;;;4.70;99.90;;;;;;5117109;27;20507;-73
2022/03/04 10:30:53;;;;;;;23.75;13.45;;;4.80;99.90;;;;;;5116746;27;20043;-73
2022/03/04 10:33:27;;;;;;;23.75;13.20;;;5.00;99.90;;;;;;5135089;27;20051;-73
2022/03/04 10:36:11;;;;;;;20.88;12.05;;;5.20;99.90;;;;;;5099586;27;20051;-73
2022/03/04 10:38:38;;;;;;;21.45;11.80;;;5.30;99.90;;;;;;5115931;27;20104;-73
2022/03/04 10:41:22;;;;;;;25.00;12.15;;;5.50;99.90;;;;;;5116600;27;20504;-72
2022/03/04 10:43:48;;;;;;;20.83;11.23;;;5.70;99.90;;;;;;5116183;27;20086;-72
2022/03/04 10:46:14;;;;;;;20.15;11.45;;;6.10;99.90;;;;;;5116114;27;20093;-72
2022/03/04 10:48:51;;;;;;;19.67;11.60;;;6.20;99.90;;;;;;5099343;27;20066;-72
2022/03/04 10:51:37;;;;;;;22.30;11.50;;;6.30;99.90;;;;;;5135133;27;20443;-72
2022/03/04 10:54:19;;;;;;;18.48;11.55;;;6.60;99.90;;;;;;5115824;27;20087;-72
2022/03/04 10:56:55;;;;;;;19.35;11.02;;;6.80;99.90;;;;;;5115918;27;20049;-72
2022/03/04 10:59:24;;;;;;;19.30;10.35;;;7.20;99.90;;;;;;5064347;27;20062;-72
2022/03/04 11:01:51;;;;;;;17.30;11.02;;;7.20;99.90;;;;;;5083474;28;20082;-72
2022/03/04 11:04:19;;;;;;;20.95;11.13;;;7.40;99.90;;;;;;5095421;28;20039;-72
2022/03/04 11:06:46;;;;;;;16.10;10.27;;;7.40;99.90;;;;;;5095659;28;20048;-71
2022/03/04 11:09:21;;;;;;;19.58;11.07;;;7.50;99.90;;;;;;5113809;28;20085;-71
2022/03/04 11:11:47;;;;;;;16.88;10.32;;;7.60;99.90;;;;;;5113946;28;20094;-72
2022/03/04 11:14:13;;;;;;;22.70;10.70;;;8.00;99.90;;;;;;5078677;28;20047;-70
2022/03/04 11:16:40;;;;;;;16.95;10.07;;;8.00;99.90;;;;;;5095008;28;20484;-71
2022/03/04 11:19:07;;;;;;;16.85;10.38;;;8.20;99.90;;;;;;5094967;28;20097;-73
2022/03/04 11:21:33;;;;;;;19.13;10.27;;;8.40;99.90;;;;;;5095210;28;20134;-72
2022/03/04 11:23:59;;;;;;;17.88;10.15;;;8.90;99.90;;;;;;5095604;28;20103;-72
2022/03/04 11:26:29;;;;;;;13.90;9.15;;;9.20;99.90;;;;;;5078191;28;20130;-72
2022/03/04 11:28:56;;;;;;;18.95;11.45;;;9.50;99.90;;;;;;5095507;28;20047;-72
2022/03/04 11:31:25;;;;;;;14.40;9.35;;;9.80;99.90;;;;;;5095243;28;20047;-72
2022/03/04 11:33:57;;;;;;;16.50;9.27;;;10.00;99.90;;;;;;5095229;28;20054;-72
2022/03/04 11:36:25;;;;;;;16.80;9.88;;;10.30;99.90;;;;;;5095254;28;20103;-71
2022/03/04 11:38:53;;;;;;;15.13;9.20;;;10.70;99.90;;;;;;5078272;28;20101;-72
2022/03/04 11:41:34;;;;;;;15.18;9.13;;;11.20;99.90;;;;;;5077775;28;20090;-72
2022/03/04 11:44:23;;;;;;;16.10;10.25;;;11.30;99.30;;;;;;5094752;28;20101;-72
2022/03/04 11:47:04;;;;;;;18.77;9.75;;;11.50;96.50;;;;;;5077132;28;20039;-72
2022/03/04 11:49:48;;;;;;;33.40;11.63;;;11.50;97.10;;;;;;5095276;28;20066;-72
2022/03/04 11:52:24;;;;;;;14.57;9.57;;;12.00;96.80;;;;;;5094739;28;20047;-72
2022/03/04 11:54:50;;;;;;;12.60;8.02;;;12.40;96.10;;;;;;5077113;28;20083;-71
2022/03/04 11:57:19;;;;;;;16.48;9.60;;;13.00;95.10;;;;;;5077668;28;20128;-72
2022/03/04 11:59:49;;;;;;;17.33;9.25;;;13.70;94.30;;;;;;5094405;28;20063;-72
2022/03/04 12:02:28;;;;;;;16.15;9.60;;;14.10;92.40;;;;;;5112813;27;20130;-71
2022/03/04 12:05:13;;;;;;;16.02;9.15;;;14.80;85.70;;;;;;5133361;27;20054;-72
2022/03/04 12:07:41;;;;;;;21.70;9.30;;;14.80;78.50;;;;;;5132855;27;20406;-72
2022/03/04 12:10:11;;;;;;;15.88;8.35;;;15.20;85.70;;;;;;5114906;27;20573;-72
2022/03/04 12:12:38;;;;;;;13.90;8.75;;;15.50;78.00;;;;;;5114802;27;20102;-72
2022/03/04 12:15:16;;;;;;;12.98;8.00;;;15.60;78.00;;;;;;5097606;27;20051;-72
2022/03/04 12:18:05;;;;;;;11.70;8.23;;;15.60;65.90;;;;;;5114631;27;20066;-71
2022/03/04 12:20:30;;;;;;;15.48;9.07;;;16.20;66.60;;;;;;5097223;27;20066;-72
2022/03/04 12:22:57;;;;;;;14.45;9.48;;;16.80;65.50;;;;;;5114272;27;20494;-72
2022/03/04 12:25:56;;;;;;;13.18;8.95;;;16.60;55.10;;;;;;5114017;27;20073;-72
2022/03/04 12:28:47;;;;;;;17.92;8.77;;;17.20;50.60;;;;;;5114599;27;20540;-72
2022/03/04 12:31:15;;;;;;;16.15;8.85;;;17.60;51.40;;;;;;5132899;27;20058;-72
2022/03/04 12:33:43;;;;;;;13.50;9.50;;;18.00;51.60;;;;;;5096939;27;20050;-73
2022/03/04 12:36:12;;;;;;;13.23;8.95;;;18.00;49.80;;;;;;5098021;27;20055;-72
2022/03/04 12:38:42;;;;;;;13.43;8.63;;;18.20;48.30;;;;;;5097653;27;20039;-72